KAL212 EDDF-EGKK
Flight info
| Callsign | KAL212 |
|---|---|
| Flight time | N/A |
| Altitude | 28000 |
| Route | OBOKA3L OBOKA Z29 TORNU DCT BREDA DCT VICOT DCT GALSO Q63 ARREK Y4 TEBRA DCT ABTUM DCT ARNUN DCT LARCK |
| Aircraft | B77W/H-SDE1E2E3FGHIJ2J3J4J5M1RWXY/LB1D1 |
Departure
| Time | 2026-05-04 11:16 |
|---|---|
| Airport | Frankfurt Main Airport (EDDF) |
Arrival
| Time | N/A |
|---|---|
| Airport | London Gatwick Airport (EGKK) |
| Time | Latitude | Longitude | Altitude | Speed | Heading |
|---|---|---|---|---|---|
| 2026-05-04 10:46 | 50.05048 | 8.58639 | 364 ft | 0 kts | 340° |
| 2026-05-04 11:08 | 50.05001 | 8.58665 | 367 ft | 4 kts | 340° |
| 2026-05-04 11:10 | 50.04970 | 8.58753 | 368 ft | 0 kts | 250° |
| 2026-05-04 11:13 | 50.04955 | 8.58700 | 368 ft | 15 kts | 240° |
| 2026-05-04 11:13 | 50.04855 | 8.58703 | 370 ft | 15 kts | 159° |
| 2026-05-04 11:13 | 50.04794 | 8.58739 | 372 ft | 6 kts | 160° |
| 2026-05-04 11:13 | 50.04707 | 8.58765 | 374 ft | 15 kts | 180° |
| 2026-05-04 11:14 | 50.04458 | 8.58464 | 376 ft | 18 kts | 249° |
| 2026-05-04 11:16 | 50.02361 | 8.48700 | 3335 ft | 187 kts | 277° |
| 2026-05-04 11:16 | 50.02548 | 8.47397 | 3781 ft | 187 kts | 279° |
| 2026-05-04 11:16 | 50.02781 | 8.45304 | 4288 ft | 209 kts | 278° |
| 2026-05-04 11:17 | 50.03081 | 8.42933 | 4538 ft | 236 kts | 269° |
| 2026-05-04 11:17 | 50.02724 | 8.40431 | 5183 ft | 239 kts | 251° |
| 2026-05-04 11:19 | 50.03133 | 8.21407 | 9685 ft | 284 kts | 291° |
| 2026-05-04 11:19 | 50.03959 | 8.18579 | 10467 ft | 293 kts | 291° |
| 2026-05-04 11:19 | 50.04834 | 8.15564 | 10804 ft | 320 kts | 291° |
| 2026-05-04 11:19 | 50.05808 | 8.12262 | 11026 ft | 350 kts | 295° |
| 2026-05-04 11:20 | 50.07159 | 8.09033 | 11573 ft | 369 kts | 305° |
| 2026-05-04 11:20 | 50.08796 | 8.05883 | 12545 ft | 379 kts | 308° |
| 2026-05-04 11:20 | 50.10514 | 8.02726 | 13677 ft | 385 kts | 308° |
| 2026-05-04 11:20 | 50.12249 | 7.99516 | 14733 ft | 390 kts | 307° |
| 2026-05-04 11:22 | 50.24689 | 7.75444 | 21383 ft | 425 kts | 309° |
| 2026-05-04 11:22 | 50.27019 | 7.72490 | 22061 ft | 442 kts | 329° |
| 2026-05-04 11:23 | 50.29871 | 7.70619 | 22832 ft | 449 kts | 336° |
| 2026-05-04 11:23 | 50.34113 | 7.67931 | 23913 ft | 456 kts | 333° |
| 2026-05-04 11:24 | 50.60810 | 7.48237 | 27244 ft | 446 kts | 320° |
| 2026-05-04 11:25 | 50.63353 | 7.45447 | 27327 ft | 446 kts | 320° |
| 2026-05-04 11:25 | 50.65903 | 7.42679 | 27418 ft | 444 kts | 320° |
| 2026-05-04 11:25 | 50.68475 | 7.39980 | 27478 ft | 446 kts | 321° |
| 2026-05-04 11:26 | 50.73620 | 7.34533 | 27602 ft | 438 kts | 314° |
| 2026-05-04 11:27 | 50.91412 | 6.81476 | 27988 ft | 422 kts | 291° |
| 2026-05-04 11:28 | 50.94078 | 6.73154 | 28005 ft | 425 kts | 291° |
| 2026-05-04 11:28 | 50.96739 | 6.64814 | 27993 ft | 428 kts | 291° |
| 2026-05-04 11:29 | 50.99431 | 6.56361 | 28004 ft | 429 kts | 291° |
| 2026-05-04 11:29 | 51.00772 | 6.52142 | 27983 ft | 429 kts | 291° |
| 2026-05-04 11:29 | 51.02112 | 6.47919 | 27986 ft | 427 kts | 291° |
| 2026-05-04 11:31 | 51.11339 | 6.18622 | 27991 ft | 422 kts | 291° |
| 2026-05-04 11:33 | 51.17600 | 5.87847 | 27988 ft | 421 kts | 282° |
| 2026-05-04 11:33 | 51.18619 | 5.83447 | 27992 ft | 425 kts | 288° |
| 2026-05-04 11:33 | 51.19889 | 5.79176 | 27986 ft | 429 kts | 293° |
| 2026-05-04 11:34 | 51.21419 | 5.75083 | 27992 ft | 430 kts | 296° |
| 2026-05-04 11:34 | 51.23011 | 5.71043 | 27990 ft | 429 kts | 297° |
| 2026-05-04 11:34 | 51.24607 | 5.67018 | 27985 ft | 429 kts | 297° |
| 2026-05-04 11:34 | 51.26199 | 5.62991 | 27979 ft | 429 kts | 296° |
| 2026-05-04 11:35 | 51.27784 | 5.58957 | 27978 ft | 428 kts | 296° |
| 2026-05-04 11:35 | 51.29358 | 5.54923 | 27980 ft | 428 kts | 296° |